createdAt,value
2018-09-17T00:02:52.305Z,16.90
2018-09-17T00:06:25.522Z,16.90
2018-09-17T00:09:58.748Z,16.80
2018-09-17T00:13:31.996Z,16.80
2018-09-17T00:17:05.228Z,16.80
2018-09-17T00:20:38.443Z,16.70
2018-09-17T00:24:11.683Z,16.70
2018-09-17T00:27:44.921Z,16.70
2018-09-17T00:31:18.144Z,16.60
2018-09-17T00:34:51.371Z,16.60
2018-09-17T00:38:24.611Z,16.60
2018-09-17T00:41:57.836Z,16.60
2018-09-17T00:45:31.069Z,16.60
2018-09-17T00:49:04.309Z,16.50
2018-09-17T00:52:37.539Z,16.50
2018-09-17T00:56:10.770Z,16.50
2018-09-17T00:59:44.008Z,16.50
2018-09-17T01:03:17.244Z,16.40
2018-09-17T01:06:50.484Z,16.40
2018-09-17T01:10:23.712Z,16.30
2018-09-17T01:13:56.957Z,16.30
2018-09-17T01:17:30.187Z,16.30
2018-09-17T01:21:03.432Z,16.30
2018-09-17T01:24:36.650Z,16.30
2018-09-17T01:28:09.908Z,16.30
2018-09-17T01:31:43.200Z,16.30
2018-09-17T01:35:16.462Z,16.20
2018-09-17T01:38:49.685Z,16.20
2018-09-17T01:42:22.922Z,16.20
2018-09-17T01:45:56.156Z,16.20
2018-09-17T01:49:29.375Z,16.20
2018-09-17T01:53:02.621Z,16.20
2018-09-17T01:56:35.841Z,16.20
2018-09-17T02:00:09.076Z,16.20
2018-09-17T02:03:42.312Z,16.20
2018-09-17T02:07:15.536Z,16.20
2018-09-17T02:10:48.767Z,16.10
2018-09-17T02:14:22.005Z,16.10
2018-09-17T02:17:55.244Z,16.10
2018-09-17T02:21:28.468Z,16.10
2018-09-17T02:25:01.714Z,16.10
2018-09-17T02:28:34.932Z,16.10
2018-09-17T02:32:08.160Z,16.10
2018-09-17T02:35:41.389Z,16.10
2018-09-17T02:39:14.621Z,16.00
2018-09-17T02:42:49.635Z,16.00
2018-09-17T02:46:22.857Z,16.00
2018-09-17T02:49:56.088Z,16.00
2018-09-17T02:53:29.380Z,16.10
2018-09-17T02:57:02.554Z,16.10
2018-09-17T03:00:35.793Z,16.20
2018-09-17T03:04:09.029Z,16.20
2018-09-17T03:07:42.296Z,16.20
2018-09-17T03:11:15.532Z,16.10
2018-09-17T03:14:48.806Z,16.10
2018-09-17T03:18:35.741Z,16.10
2018-09-17T03:22:09.273Z,16.10
2018-09-17T03:25:42.532Z,16.00
2018-09-17T03:29:15.757Z,16.00
2018-09-17T03:32:49.016Z,15.90
2018-09-17T03:36:22.257Z,15.80
2018-09-17T03:39:55.574Z,15.70
2018-09-17T03:43:28.895Z,15.70
2018-09-17T03:47:02.123Z,15.70
2018-09-17T03:50:35.349Z,15.70
2018-09-17T03:54:08.572Z,15.80
2018-09-17T03:57:41.820Z,15.70
2018-09-17T04:01:15.061Z,15.80
2018-09-17T04:04:48.279Z,15.70
2018-09-17T04:08:21.513Z,15.60
2018-09-17T04:11:54.802Z,15.60
2018-09-17T04:15:28.484Z,15.60
2018-09-17T04:19:01.724Z,15.60
2018-09-17T04:22:34.969Z,15.40
2018-09-17T04:26:10.319Z,15.30
2018-09-17T04:29:43.558Z,15.30
2018-09-17T04:33:16.798Z,15.30
2018-09-17T04:36:50.049Z,15.30
2018-09-17T04:40:23.290Z,15.30
2018-09-17T04:43:56.505Z,15.30
2018-09-17T04:47:29.955Z,15.30
2018-09-17T04:51:03.188Z,15.40
2018-09-17T04:54:36.432Z,15.30
2018-09-17T04:58:09.655Z,15.30
2018-09-17T05:01:42.901Z,15.30
2018-09-17T05:05:16.145Z,15.20
2018-09-17T05:08:49.372Z,15.20
2018-09-17T05:12:22.624Z,15.20
2018-09-17T05:15:55.864Z,15.30
2018-09-17T05:19:29.120Z,15.20
2018-09-17T05:23:02.354Z,15.20
2018-09-17T05:26:35.585Z,15.20
2018-09-17T05:30:08.858Z,15.20
2018-09-17T05:33:42.078Z,15.30
2018-09-17T05:37:15.329Z,15.30
2018-09-17T05:40:48.564Z,15.30
2018-09-17T05:44:21.843Z,15.30
2018-09-17T05:47:55.046Z,15.40
2018-09-17T05:51:28.290Z,15.40
2018-09-17T05:55:01.541Z,15.40
2018-09-17T05:58:34.767Z,15.50
2018-09-17T06:02:08.089Z,15.50
2018-09-17T06:05:41.385Z,15.50
2018-09-17T06:09:14.583Z,15.60
2018-09-17T06:12:48.628Z,15.60
2018-09-17T06:16:21.860Z,15.70
2018-09-17T06:19:55.111Z,15.70
2018-09-17T06:23:28.349Z,15.80
2018-09-17T06:27:01.577Z,15.80
2018-09-17T06:30:34.810Z,15.90
2018-09-17T06:34:08.130Z,16.00
2018-09-17T06:37:41.381Z,16.20
2018-09-17T06:41:14.645Z,16.30
2018-09-17T06:44:47.891Z,16.40
2018-09-17T06:48:21.127Z,16.40
2018-09-17T06:51:54.365Z,16.40
2018-09-17T06:55:27.620Z,16.50
2018-09-17T06:59:00.864Z,16.60
2018-09-17T07:02:34.105Z,16.60
2018-09-17T07:06:07.390Z,16.60
2018-09-17T07:09:40.627Z,16.70
2018-09-17T07:13:13.866Z,16.80
2018-09-17T07:16:47.100Z,17.00
2018-09-17T07:20:20.352Z,17.10
2018-09-17T07:23:53.580Z,17.20
2018-09-17T07:27:26.818Z,17.40
2018-09-17T07:31:00.057Z,17.50
2018-09-17T07:34:33.313Z,17.60
2018-09-17T07:38:06.540Z,17.80
2018-09-17T07:41:39.757Z,17.90
2018-09-17T07:45:13.022Z,18.00
2018-09-17T07:48:46.271Z,18.20
2018-09-17T07:52:19.497Z,18.30
2018-09-17T07:55:52.747Z,18.50
2018-09-17T07:59:26.011Z,18.70
2018-09-17T08:02:59.253Z,18.80
2018-09-17T08:06:32.503Z,19.00
2018-09-17T08:10:05.744Z,19.10
2018-09-17T08:13:38.996Z,19.20
2018-09-17T08:17:12.235Z,19.40
2018-09-17T08:20:45.465Z,19.60
2018-09-17T08:24:18.708Z,19.80
2018-09-17T08:27:51.951Z,19.90
2018-09-17T08:31:25.206Z,20.00
2018-09-17T08:34:58.457Z,20.10
2018-09-17T08:38:31.710Z,20.30
2018-09-17T08:42:04.949Z,20.40
2018-09-17T08:45:38.201Z,20.50
2018-09-17T08:49:11.426Z,20.60
2018-09-17T08:52:44.727Z,20.80
2018-09-17T08:56:22.137Z,21.00
2018-09-17T09:00:00.736Z,21.10
2018-09-17T09:03:39.377Z,21.30
2018-09-17T09:08:17.896Z,21.40
2018-09-17T09:12:04.527Z,21.40
2018-09-17T09:15:41.616Z,21.60
2018-09-17T09:19:14.860Z,21.70
2018-09-17T09:22:48.117Z,21.90
2018-09-17T09:26:21.359Z,22.10
2018-09-17T09:29:54.685Z,22.20
2018-09-17T09:33:27.971Z,22.30
2018-09-17T09:37:01.212Z,22.40
2018-09-17T09:40:34.467Z,22.60
2018-09-17T09:44:08.016Z,22.70
2018-09-17T09:47:41.291Z,22.80
2018-09-17T09:51:14.540Z,22.90
2018-09-17T09:54:47.785Z,23.00
2018-09-17T09:58:21.024Z,23.10
2018-09-17T10:01:58.489Z,23.20
2018-09-17T10:05:31.757Z,23.40
2018-09-17T10:09:12.046Z,23.60
2018-09-17T10:12:50.724Z,23.80
2018-09-17T10:16:23.955Z,24.00
2018-09-17T10:19:57.207Z,24.10
2018-09-17T10:23:30.466Z,24.20
2018-09-17T10:27:03.697Z,24.40
2018-09-17T10:30:36.928Z,24.50
2018-09-17T10:34:10.163Z,24.50
2018-09-17T10:37:43.397Z,24.50
2018-09-17T10:41:16.633Z,24.50
2018-09-17T10:44:49.921Z,24.60
2018-09-17T10:48:23.168Z,24.80
2018-09-17T10:51:56.404Z,24.90
2018-09-17T10:55:29.644Z,24.90
2018-09-17T10:59:02.888Z,25.00
2018-09-17T11:02:36.165Z,24.90
2018-09-17T11:06:09.387Z,24.90
2018-09-17T11:09:42.620Z,25.00
2018-09-17T11:13:15.925Z,25.00
2018-09-17T11:16:49.148Z,25.10
2018-09-17T11:20:22.386Z,25.20
2018-09-17T11:23:55.628Z,25.40
2018-09-17T11:27:29.113Z,25.40
2018-09-17T11:31:02.340Z,25.60
2018-09-17T11:34:35.571Z,25.70
2018-09-17T11:38:09.328Z,25.80
2018-09-17T11:41:42.577Z,26.00
2018-09-17T11:45:15.808Z,26.20
2018-09-17T11:48:49.062Z,26.30
2018-09-17T11:52:22.300Z,26.40
2018-09-17T11:55:55.528Z,26.50
2018-09-17T11:59:28.759Z,26.50
2018-09-17T12:03:07.369Z,26.60
2018-09-17T12:06:46.092Z,26.50
2018-09-17T12:10:19.368Z,26.40
2018-09-17T12:13:52.672Z,26.40
2018-09-17T12:17:25.920Z,26.30
2018-09-17T12:20:59.149Z,26.30
2018-09-17T12:24:32.388Z,26.40
2018-09-17T12:28:05.970Z,26.40
2018-09-17T12:31:39.212Z,26.50
2018-09-17T12:35:12.444Z,26.50
2018-09-17T12:38:45.744Z,26.40
2018-09-17T12:42:19.001Z,26.40
2018-09-17T12:45:52.267Z,26.40
2018-09-17T12:49:25.504Z,26.30
2018-09-17T12:52:58.749Z,26.30
2018-09-17T12:56:31.990Z,26.30
2018-09-17T13:00:06.302Z,26.30
2018-09-17T13:03:39.531Z,26.20
2018-09-17T13:07:12.776Z,26.20
2018-09-17T13:10:46.063Z,26.20
2018-09-17T13:14:19.304Z,26.20
2018-09-17T13:17:52.544Z,26.10
2018-09-17T13:21:25.794Z,26.10
2018-09-17T13:24:59.144Z,26.10
2018-09-17T13:28:32.294Z,26.10
2018-09-17T13:32:05.693Z,26.20
2018-09-17T13:35:38.845Z,26.20
2018-09-17T13:39:12.068Z,26.30
2018-09-17T13:42:45.309Z,26.40
2018-09-17T13:46:18.574Z,26.60
2018-09-17T13:49:51.906Z,26.70
2018-09-17T13:53:25.183Z,26.80
2018-09-17T13:56:58.407Z,26.80
2018-09-17T14:00:31.675Z,26.80
2018-09-17T14:04:04.914Z,26.80
2018-09-17T14:07:38.407Z,26.90
2018-09-17T14:11:11.651Z,27.00
2018-09-17T14:14:44.895Z,27.10
2018-09-17T14:18:18.152Z,27.20
2018-09-17T14:21:51.423Z,27.30
2018-09-17T14:25:24.639Z,27.30
2018-09-17T14:28:58.230Z,27.40
2018-09-17T14:32:36.980Z,27.50
2018-09-17T14:36:10.179Z,27.50
2018-09-17T14:39:43.453Z,27.60
2018-09-17T14:43:16.668Z,27.60
2018-09-17T14:46:49.926Z,27.70
2018-09-17T14:50:23.183Z,27.80
2018-09-17T14:53:56.477Z,27.90
2018-09-17T14:57:29.757Z,28.00
2018-09-17T15:01:03.023Z,28.00
2018-09-17T15:04:36.235Z,28.00
2018-09-17T15:08:09.853Z,27.90
2018-09-17T15:11:43.002Z,27.70
2018-09-17T15:15:16.335Z,27.60
2018-09-17T15:18:50.345Z,27.50
2018-09-17T15:22:23.699Z,27.40
2018-09-17T15:25:56.853Z,27.40
2018-09-17T15:29:30.141Z,27.30
2018-09-17T15:33:03.395Z,27.20
2018-09-17T15:36:36.652Z,27.10
2018-09-17T15:40:09.900Z,27.10
2018-09-17T15:43:43.154Z,27.00
2018-09-17T15:47:16.383Z,27.00
2018-09-17T15:50:49.636Z,26.90
2018-09-17T15:54:22.892Z,26.80
2018-09-17T15:57:56.203Z,26.80
2018-09-17T16:01:29.396Z,26.70
2018-09-17T16:05:02.633Z,26.60
2018-09-17T16:08:35.879Z,26.50
2018-09-17T16:12:09.123Z,26.50
2018-09-17T16:15:42.369Z,26.40
2018-09-17T16:19:15.629Z,26.40
2018-09-17T16:22:48.873Z,26.30
2018-09-17T16:26:22.133Z,26.30
2018-09-17T16:29:55.409Z,26.20
2018-09-17T16:33:28.716Z,26.10
2018-09-17T16:37:01.892Z,26.00
2018-09-17T16:40:35.136Z,26.00
2018-09-17T16:44:08.381Z,25.90
2018-09-17T16:47:41.618Z,25.80
2018-09-17T16:51:14.860Z,25.70
2018-09-17T16:54:48.105Z,25.60
2018-09-17T16:58:21.381Z,25.60
2018-09-17T17:01:54.614Z,25.50
2018-09-17T17:05:27.860Z,25.40
2018-09-17T17:09:01.097Z,25.30
2018-09-17T17:12:34.329Z,25.30
2018-09-17T17:16:07.630Z,25.20
2018-09-17T17:19:40.848Z,25.10
2018-09-17T17:23:14.095Z,25.00
2018-09-17T17:26:47.359Z,24.90
2018-09-17T17:30:20.607Z,24.80
2018-09-17T17:33:54.102Z,24.80
2018-09-17T17:37:27.328Z,24.60
2018-09-17T17:41:00.577Z,24.50
2018-09-17T17:44:33.843Z,24.40
2018-09-17T17:48:07.097Z,24.30
2018-09-17T17:51:40.356Z,24.20
2018-09-17T17:55:13.608Z,24.10
2018-09-17T17:58:46.936Z,23.90
2018-09-17T18:02:20.203Z,23.80
2018-09-17T18:05:53.444Z,23.70
2018-09-17T18:09:26.814Z,23.60
2018-09-17T18:12:59.983Z,23.60
2018-09-17T18:16:33.243Z,23.50
2018-09-17T18:20:07.063Z,23.40
2018-09-17T18:23:40.317Z,23.30
2018-09-17T18:27:13.585Z,23.30
2018-09-17T18:30:46.832Z,23.20
2018-09-17T18:34:20.075Z,23.10
2018-09-17T18:37:53.337Z,23.00
2018-09-17T18:41:26.584Z,22.90
2018-09-17T18:44:59.867Z,22.70
2018-09-17T18:48:33.192Z,22.70
2018-09-17T18:52:06.379Z,22.60
2018-09-17T18:55:39.647Z,22.60
2018-09-17T18:59:12.903Z,22.50
2018-09-17T19:02:46.191Z,22.50
2018-09-17T19:06:19.502Z,22.40
2018-09-17T19:09:52.657Z,22.30
2018-09-17T19:13:25.912Z,22.30
2018-09-17T19:16:59.224Z,22.20
2018-09-17T19:20:32.511Z,22.10
2018-09-17T19:24:06.848Z,22.00
2018-09-17T19:27:45.512Z,21.90
2018-09-17T19:31:18.742Z,21.80
2018-09-17T19:34:51.979Z,21.70
2018-09-17T19:38:30.787Z,21.60
2018-09-17T19:42:04.049Z,21.60
2018-09-17T19:45:42.859Z,21.50
2018-09-17T19:49:16.103Z,21.40
2018-09-17T19:52:49.360Z,21.30
2018-09-17T19:56:22.757Z,21.30
2018-09-17T19:59:59.467Z,21.30
2018-09-17T20:03:32.720Z,21.20
2018-09-17T20:07:06.001Z,21.20
2018-09-17T20:10:39.360Z,21.10
2018-09-17T20:14:12.599Z,21.00
2018-09-17T20:17:45.849Z,20.90
2018-09-17T20:21:19.097Z,20.80
2018-09-17T20:24:52.340Z,20.70
2018-09-17T20:28:25.883Z,20.70
2018-09-17T20:31:59.169Z,20.60
2018-09-17T20:35:32.417Z,20.50
2018-09-17T20:39:08.007Z,20.50
2018-09-17T20:42:41.277Z,20.50
2018-09-17T20:46:14.504Z,20.50
2018-09-17T20:49:47.779Z,20.50
2018-09-17T20:53:21.076Z,20.50
2018-09-17T20:56:54.300Z,20.40
2018-09-17T21:00:27.540Z,20.40
2018-09-17T21:04:00.800Z,20.30
2018-09-17T21:07:34.038Z,20.20
2018-09-17T21:11:07.292Z,20.10
2018-09-17T21:14:40.570Z,20.00
2018-09-17T21:18:13.825Z,19.90
2018-09-17T21:21:47.126Z,19.80
2018-09-17T21:25:20.330Z,19.80
2018-09-17T21:28:53.577Z,19.70
2018-09-17T21:32:26.825Z,19.60
2018-09-17T21:36:00.062Z,19.60
2018-09-17T21:39:33.322Z,19.50
2018-09-17T21:43:06.612Z,19.50
2018-09-17T21:46:39.886Z,19.50
2018-09-17T21:50:13.128Z,19.40
2018-09-17T21:53:46.368Z,19.40
2018-09-17T21:57:19.625Z,19.40
2018-09-17T22:00:58.168Z,19.40
2018-09-17T22:04:31.437Z,19.30
2018-09-17T22:08:04.676Z,19.20
2018-09-17T22:11:37.926Z,19.20
2018-09-17T22:15:11.169Z,19.10
2018-09-17T22:18:44.396Z,19.10
2018-09-17T22:22:17.686Z,19.10
2018-09-17T22:25:50.925Z,19.10
2018-09-17T22:29:24.169Z,19.10
2018-09-17T22:32:57.429Z,19.10
2018-09-17T22:36:30.677Z,19.10
2018-09-17T22:40:03.901Z,19.00
2018-09-17T22:43:37.166Z,19.00
2018-09-17T22:47:10.400Z,18.90
2018-09-17T22:50:43.643Z,18.90
2018-09-17T22:54:16.892Z,18.90
2018-09-17T22:57:50.127Z,18.90
2018-09-17T23:01:23.356Z,18.90
2018-09-17T23:04:56.588Z,18.90
2018-09-17T23:08:29.827Z,18.90
2018-09-17T23:12:03.092Z,18.90
2018-09-17T23:15:36.338Z,18.80
2018-09-17T23:19:09.601Z,18.80
2018-09-17T23:22:42.832Z,18.80
2018-09-17T23:26:16.072Z,18.80
2018-09-17T23:29:49.307Z,18.70
2018-09-17T23:33:22.557Z,18.70
2018-09-17T23:36:55.791Z,18.60
2018-09-17T23:40:29.032Z,18.60
2018-09-17T23:44:02.281Z,18.60
2018-09-17T23:47:35.531Z,18.50
2018-09-17T23:51:08.779Z,18.50
2018-09-17T23:54:42.017Z,18.40
2018-09-17T23:58:15.264Z,18.30
